sensor_id;sensor_type;location;lat;lon;timestamp;P1;durP1;ratioP1;P2;durP2;ratioP2
76582;SDS011;65462;52.148;7.940;2023-03-01T00:01:13;5.10;;;3.63;;
76582;SDS011;65462;52.148;7.940;2023-03-01T00:03:40;6.93;;;3.70;;
76582;SDS011;65462;52.148;7.940;2023-03-01T00:06:06;6.63;;;4.00;;
76582;SDS011;65462;52.148;7.940;2023-03-01T00:08:31;4.80;;;3.57;;
76582;SDS011;65462;52.148;7.940;2023-03-01T00:13:30;5.87;;;3.50;;
76582;SDS011;65462;52.148;7.940;2023-03-01T00:15:56;6.13;;;3.23;;
76582;SDS011;65462;52.148;7.940;2023-03-01T00:18:21;7.03;;;3.50;;
76582;SDS011;65462;52.148;7.940;2023-03-01T00:20:54;6.83;;;3.53;;
76582;SDS011;65462;52.148;7.940;2023-03-01T00:23:20;9.40;;;4.13;;
76582;SDS011;65462;52.148;7.940;2023-03-01T00:25:46;6.00;;;3.60;;
76582;SDS011;65462;52.148;7.940;2023-03-01T00:28:11;7.83;;;4.03;;
76582;SDS011;65462;52.148;7.940;2023-03-01T00:30:36;7.97;;;3.80;;
76582;SDS011;65462;52.148;7.940;2023-03-01T00:33:02;6.30;;;4.20;;
76582;SDS011;65462;52.148;7.940;2023-03-01T00:35:27;6.37;;;4.07;;
76582;SDS011;65462;52.148;7.940;2023-03-01T00:37:52;5.90;;;3.63;;
76582;SDS011;65462;52.148;7.940;2023-03-01T00:40:23;5.70;;;3.50;;
76582;SDS011;65462;52.148;7.940;2023-03-01T00:42:52;7.37;;;3.83;;
76582;SDS011;65462;52.148;7.940;2023-03-01T00:45:17;5.67;;;3.50;;
76582;SDS011;65462;52.148;7.940;2023-03-01T00:47:42;6.53;;;3.80;;
76582;SDS011;65462;52.148;7.940;2023-03-01T00:50:08;5.00;;;3.63;;
76582;SDS011;65462;52.148;7.940;2023-03-01T00:52:34;6.67;;;4.03;;
76582;SDS011;65462;52.148;7.940;2023-03-01T00:55:00;6.83;;;3.73;;
76582;SDS011;65462;52.148;7.940;2023-03-01T00:57:25;7.17;;;4.17;;
76582;SDS011;65462;52.148;7.940;2023-03-01T00:59:51;6.93;;;3.43;;
76582;SDS011;65462;52.148;7.940;2023-03-01T01:02:17;6.23;;;3.70;;
76582;SDS011;65462;52.148;7.940;2023-03-01T01:04:43;6.57;;;3.80;;
76582;SDS011;65462;52.148;7.940;2023-03-01T01:07:08;7.00;;;3.63;;
76582;SDS011;65462;52.148;7.940;2023-03-01T01:09:33;5.23;;;3.37;;
76582;SDS011;65462;52.148;7.940;2023-03-01T01:11:59;7.67;;;3.93;;
76582;SDS011;65462;52.148;7.940;2023-03-01T01:14:24;6.97;;;3.40;;
76582;SDS011;65462;52.148;7.940;2023-03-01T01:16:49;6.50;;;3.97;;
76582;SDS011;65462;52.148;7.940;2023-03-01T01:19:15;8.00;;;3.63;;
76582;SDS011;65462;52.148;7.940;2023-03-01T01:21:41;7.00;;;4.03;;
76582;SDS011;65462;52.148;7.940;2023-03-01T01:24:09;8.53;;;4.33;;
76582;SDS011;65462;52.148;7.940;2023-03-01T01:26:35;5.77;;;3.53;;
76582;SDS011;65462;52.148;7.940;2023-03-01T01:29:01;5.13;;;3.60;;
76582;SDS011;65462;52.148;7.940;2023-03-01T01:31:28;6.97;;;4.00;;
76582;SDS011;65462;52.148;7.940;2023-03-01T01:33:53;6.33;;;3.83;;
76582;SDS011;65462;52.148;7.940;2023-03-01T01:36:19;7.10;;;3.70;;
76582;SDS011;65462;52.148;7.940;2023-03-01T01:38:46;7.87;;;4.13;;
76582;SDS011;65462;52.148;7.940;2023-03-01T01:41:11;5.47;;;3.53;;
76582;SDS011;65462;52.148;7.940;2023-03-01T01:43:43;5.80;;;3.67;;
76582;SDS011;65462;52.148;7.940;2023-03-01T01:51:47;6.23;;;3.90;;
76582;SDS011;65462;52.148;7.940;2023-03-01T01:54:17;6.73;;;4.27;;
76582;SDS011;65462;52.148;7.940;2023-03-01T01:56:57;8.27;;;3.63;;
76582;SDS011;65462;52.148;7.940;2023-03-01T01:59:26;7.10;;;4.27;;
76582;SDS011;65462;52.148;7.940;2023-03-01T02:01:53;6.00;;;3.77;;
76582;SDS011;65462;52.148;7.940;2023-03-01T02:04:19;7.23;;;3.83;;
76582;SDS011;65462;52.148;7.940;2023-03-01T02:06:48;7.20;;;4.17;;
76582;SDS011;65462;52.148;7.940;2023-03-01T02:09:18;7.90;;;3.97;;
76582;SDS011;65462;52.148;7.940;2023-03-01T02:11:46;7.27;;;3.93;;
76582;SDS011;65462;52.148;7.940;2023-03-01T02:14:12;8.70;;;4.20;;
76582;SDS011;65462;52.148;7.940;2023-03-01T02:16:39;8.23;;;4.10;;
76582;SDS011;65462;52.148;7.940;2023-03-01T02:19:06;7.77;;;4.07;;
76582;SDS011;65462;52.148;7.940;2023-03-01T02:24:18;9.90;;;4.20;;
76582;SDS011;65462;52.148;7.940;2023-03-01T02:26:54;9.40;;;4.67;;
76582;SDS011;65462;52.148;7.940;2023-03-01T02:29:21;10.00;;;4.70;;
76582;SDS011;65462;52.148;7.940;2023-03-01T02:31:48;8.83;;;4.40;;
76582;SDS011;65462;52.148;7.940;2023-03-01T02:34:16;6.30;;;4.43;;
76582;SDS011;65462;52.148;7.940;2023-03-01T02:36:45;9.00;;;4.73;;
76582;SDS011;65462;52.148;7.940;2023-03-01T02:39:21;10.20;;;5.03;;
76582;SDS011;65462;52.148;7.940;2023-03-01T02:41:52;10.03;;;4.67;;
76582;SDS011;65462;52.148;7.940;2023-03-01T02:44:20;14.93;;;5.77;;
76582;SDS011;65462;52.148;7.940;2023-03-01T02:46:47;9.03;;;5.13;;
76582;SDS011;65462;52.148;7.940;2023-03-01T02:49:18;9.37;;;4.90;;
76582;SDS011;65462;52.148;7.940;2023-03-01T02:57:28;11.20;;;5.27;;
76582;SDS011;65462;52.148;7.940;2023-03-01T02:59:56;10.17;;;5.20;;
76582;SDS011;65462;52.148;7.940;2023-03-01T03:02:29;11.93;;;5.43;;
76582;SDS011;65462;52.148;7.940;2023-03-01T03:05:02;12.43;;;5.87;;
76582;SDS011;65462;52.148;7.940;2023-03-01T03:07:31;11.00;;;6.20;;
76582;SDS011;65462;52.148;7.940;2023-03-01T03:09:57;9.70;;;5.23;;
76582;SDS011;65462;52.148;7.940;2023-03-01T03:12:22;10.47;;;5.67;;
76582;SDS011;65462;52.148;7.940;2023-03-01T03:14:47;9.83;;;5.50;;
76582;SDS011;65462;52.148;7.940;2023-03-01T03:17:12;10.97;;;5.90;;
76582;SDS011;65462;52.148;7.940;2023-03-01T03:19:38;9.63;;;5.20;;
76582;SDS011;65462;52.148;7.940;2023-03-01T03:22:03;11.27;;;5.77;;
76582;SDS011;65462;52.148;7.940;2023-03-01T03:24:28;10.33;;;5.20;;
76582;SDS011;65462;52.148;7.940;2023-03-01T03:27:02;8.32;;;4.97;;
76582;SDS011;65462;52.148;7.940;2023-03-01T03:29:28;10.97;;;5.13;;
76582;SDS011;65462;52.148;7.940;2023-03-01T03:31:53;9.57;;;5.03;;
76582;SDS011;65462;52.148;7.940;2023-03-01T03:34:18;10.43;;;5.23;;
76582;SDS011;65462;52.148;7.940;2023-03-01T03:36:43;8.17;;;4.47;;
76582;SDS011;65462;52.148;7.940;2023-03-01T03:39:09;13.33;;;5.43;;
76582;SDS011;65462;52.148;7.940;2023-03-01T03:41:34;7.87;;;4.73;;
76582;SDS011;65462;52.148;7.940;2023-03-01T03:44:00;9.00;;;4.97;;
76582;SDS011;65462;52.148;7.940;2023-03-01T03:46:25;7.93;;;4.73;;
76582;SDS011;65462;52.148;7.940;2023-03-01T03:48:51;8.57;;;4.90;;
76582;SDS011;65462;52.148;7.940;2023-03-01T03:51:16;8.03;;;4.70;;
76582;SDS011;65462;52.148;7.940;2023-03-01T03:53:43;8.13;;;4.67;;
76582;SDS011;65462;52.148;7.940;2023-03-01T03:56:09;10.87;;;4.57;;
76582;SDS011;65462;52.148;7.940;2023-03-01T03:58:35;8.10;;;4.87;;
76582;SDS011;65462;52.148;7.940;2023-03-01T04:01:00;10.10;;;4.83;;
76582;SDS011;65462;52.148;7.940;2023-03-01T04:03:26;8.43;;;4.60;;
76582;SDS011;65462;52.148;7.940;2023-03-01T04:05:53;8.80;;;5.00;;
76582;SDS011;65462;52.148;7.940;2023-03-01T04:08:19;6.93;;;4.20;;
76582;SDS011;65462;52.148;7.940;2023-03-01T04:10:46;7.87;;;4.77;;
76582;SDS011;65462;52.148;7.940;2023-03-01T04:13:16;10.57;;;4.43;;
76582;SDS011;65462;52.148;7.940;2023-03-01T04:15:44;10.03;;;4.73;;
76582;SDS011;65462;52.148;7.940;2023-03-01T04:18:12;8.43;;;4.83;;
76582;SDS011;65462;52.148;7.940;2023-03-01T04:20:38;7.17;;;4.20;;
76582;SDS011;65462;52.148;7.940;2023-03-01T04:23:07;9.27;;;4.37;;
76582;SDS011;65462;52.148;7.940;2023-03-01T04:28:18;8.77;;;4.80;;
76582;SDS011;65462;52.148;7.940;2023-03-01T04:30:44;8.30;;;4.53;;
76582;SDS011;65462;52.148;7.940;2023-03-01T04:33:09;7.63;;;5.27;;
76582;SDS011;65462;52.148;7.940;2023-03-01T04:35:36;10.37;;;5.17;;
76582;SDS011;65462;52.148;7.940;2023-03-01T04:38:02;9.13;;;4.87;;
76582;SDS011;65462;52.148;7.940;2023-03-01T04:40:28;10.13;;;4.97;;
76582;SDS011;65462;52.148;7.940;2023-03-01T04:42:54;10.23;;;4.77;;
76582;SDS011;65462;52.148;7.940;2023-03-01T04:45:19;8.57;;;4.57;;
76582;SDS011;65462;52.148;7.940;2023-03-01T04:47:45;10.30;;;4.70;;
76582;SDS011;65462;52.148;7.940;2023-03-01T04:50:12;9.23;;;5.37;;
76582;SDS011;65462;52.148;7.940;2023-03-01T04:52:39;8.57;;;4.73;;
76582;SDS011;65462;52.148;7.940;2023-03-01T04:55:04;10.90;;;4.93;;
76582;SDS011;65462;52.148;7.940;2023-03-01T04:57:30;10.43;;;5.30;;
76582;SDS011;65462;52.148;7.940;2023-03-01T04:59:56;9.23;;;5.20;;
76582;SDS011;65462;52.148;7.940;2023-03-01T05:02:21;8.60;;;5.60;;
76582;SDS011;65462;52.148;7.940;2023-03-01T05:04:46;9.80;;;5.17;;
76582;SDS011;65462;52.148;7.940;2023-03-01T05:07:11;9.97;;;5.47;;
76582;SDS011;65462;52.148;7.940;2023-03-01T05:09:38;10.57;;;5.40;;
76582;SDS011;65462;52.148;7.940;2023-03-01T05:12:03;12.97;;;5.50;;
76582;SDS011;65462;52.148;7.940;2023-03-01T05:14:29;8.90;;;4.83;;
76582;SDS011;65462;52.148;7.940;2023-03-01T05:16:54;12.20;;;5.67;;
76582;SDS011;65462;52.148;7.940;2023-03-01T05:19:19;8.47;;;4.93;;
76582;SDS011;65462;52.148;7.940;2023-03-01T05:21:47;11.13;;;5.57;;
76582;SDS011;65462;52.148;7.940;2023-03-01T05:24:32;9.00;;;5.50;;
76582;SDS011;65462;52.148;7.940;2023-03-01T05:26:59;9.90;;;5.73;;
76582;SDS011;65462;52.148;7.940;2023-03-01T05:29:25;9.60;;;5.37;;
76582;SDS011;65462;52.148;7.940;2023-03-01T05:34:17;9.10;;;5.37;;
76582;SDS011;65462;52.148;7.940;2023-03-01T05:36:43;7.40;;;4.93;;
76582;SDS011;65462;52.148;7.940;2023-03-01T05:39:08;10.30;;;5.27;;
76582;SDS011;65462;52.148;7.940;2023-03-01T05:41:33;12.37;;;5.87;;
76582;SDS011;65462;52.148;7.940;2023-03-01T05:43:58;9.20;;;5.57;;
76582;SDS011;65462;52.148;7.940;2023-03-01T05:46:24;9.27;;;5.10;;
76582;SDS011;65462;52.148;7.940;2023-03-01T05:48:49;9.27;;;5.00;;
76582;SDS011;65462;52.148;7.940;2023-03-01T05:51:14;9.17;;;5.00;;
76582;SDS011;65462;52.148;7.940;2023-03-01T05:53:39;9.63;;;4.97;;
76582;SDS011;65462;52.148;7.940;2023-03-01T05:56:05;8.90;;;5.20;;
76582;SDS011;65462;52.148;7.940;2023-03-01T05:58:31;9.47;;;4.97;;
76582;SDS011;65462;52.148;7.940;2023-03-01T06:00:56;9.27;;;5.00;;
76582;SDS011;65462;52.148;7.940;2023-03-01T06:03:21;8.73;;;4.93;;
76582;SDS011;65462;52.148;7.940;2023-03-01T06:05:47;7.33;;;4.43;;
76582;SDS011;65462;52.148;7.940;2023-03-01T06:08:12;10.57;;;4.83;;
76582;SDS011;65462;52.148;7.940;2023-03-01T06:10:38;8.50;;;4.80;;
76582;SDS011;65462;52.148;7.940;2023-03-01T06:13:04;9.53;;;4.50;;
76582;SDS011;65462;52.148;7.940;2023-03-01T06:15:29;6.80;;;4.00;;
76582;SDS011;65462;52.148;7.940;2023-03-01T06:17:55;10.87;;;4.80;;
76582;SDS011;65462;52.148;7.940;2023-03-01T06:20:24;9.17;;;4.73;;
76582;SDS011;65462;52.148;7.940;2023-03-01T06:22:51;7.77;;;4.27;;
76582;SDS011;65462;52.148;7.940;2023-03-01T06:25:17;7.90;;;4.60;;
76582;SDS011;65462;52.148;7.940;2023-03-01T06:27:45;7.57;;;3.83;;
76582;SDS011;65462;52.148;7.940;2023-03-01T06:30:11;7.30;;;4.23;;
76582;SDS011;65462;52.148;7.940;2023-03-01T06:32:39;8.30;;;4.33;;
76582;SDS011;65462;52.148;7.940;2023-03-01T06:35:07;7.67;;;4.17;;
76582;SDS011;65462;52.148;7.940;2023-03-01T06:37:33;7.40;;;4.30;;
76582;SDS011;65462;52.148;7.940;2023-03-01T06:40:00;7.73;;;4.60;;
76582;SDS011;65462;52.148;7.940;2023-03-01T06:42:29;9.10;;;4.40;;
76582;SDS011;65462;52.148;7.940;2023-03-01T06:44:54;6.73;;;4.23;;
76582;SDS011;65462;52.148;7.940;2023-03-01T06:47:20;8.60;;;4.93;;
76582;SDS011;65462;52.148;7.940;2023-03-01T06:49:45;7.63;;;4.53;;
76582;SDS011;65462;52.148;7.940;2023-03-01T06:52:10;9.07;;;4.30;;
76582;SDS011;65462;52.148;7.940;2023-03-01T06:54:36;8.30;;;4.60;;
76582;SDS011;65462;52.148;7.940;2023-03-01T06:57:01;8.57;;;4.67;;
76582;SDS011;65462;52.148;7.940;2023-03-01T06:59:26;8.53;;;4.40;;
76582;SDS011;65462;52.148;7.940;2023-03-01T07:01:52;10.83;;;4.67;;
76582;SDS011;65462;52.148;7.940;2023-03-01T07:04:17;8.57;;;4.10;;
76582;SDS011;65462;52.148;7.940;2023-03-01T07:06:42;9.63;;;4.60;;
76582;SDS011;65462;52.148;7.940;2023-03-01T07:09:07;9.53;;;4.23;;
76582;SDS011;65462;52.148;7.940;2023-03-01T07:11:33;7.47;;;3.80;;
76582;SDS011;65462;52.148;7.940;2023-03-01T07:13:58;7.43;;;4.43;;
76582;SDS011;65462;52.148;7.940;2023-03-01T07:16:24;9.87;;;5.30;;
76582;SDS011;65462;52.148;7.940;2023-03-01T07:18:50;11.03;;;4.10;;
76582;SDS011;65462;52.148;7.940;2023-03-01T07:21:15;7.90;;;4.63;;
76582;SDS011;65462;52.148;7.940;2023-03-01T07:23:41;7.97;;;4.37;;
76582;SDS011;65462;52.148;7.940;2023-03-01T07:26:07;8.87;;;4.27;;
76582;SDS011;65462;52.148;7.940;2023-03-01T07:28:32;9.23;;;4.90;;
76582;SDS011;65462;52.148;7.940;2023-03-01T07:31:03;10.50;;;5.00;;
76582;SDS011;65462;52.148;7.940;2023-03-01T07:33:29;8.30;;;5.00;;
76582;SDS011;65462;52.148;7.940;2023-03-01T07:35:58;9.10;;;4.47;;
76582;SDS011;65462;52.148;7.940;2023-03-01T07:38:28;8.40;;;4.82;;
76582;SDS011;65462;52.148;7.940;2023-03-01T07:40:57;10.87;;;5.00;;
76582;SDS011;65462;52.148;7.940;2023-03-01T07:43:24;8.43;;;4.67;;
76582;SDS011;65462;52.148;7.940;2023-03-01T07:45:49;12.43;;;5.50;;
76582;SDS011;65462;52.148;7.940;2023-03-01T07:48:14;8.93;;;5.50;;
76582;SDS011;65462;52.148;7.940;2023-03-01T07:50:40;8.60;;;5.43;;
76582;SDS011;65462;52.148;7.940;2023-03-01T07:53:05;10.70;;;4.80;;
76582;SDS011;65462;52.148;7.940;2023-03-01T07:55:30;10.53;;;5.17;;
76582;SDS011;65462;52.148;7.940;2023-03-01T07:57:55;10.70;;;4.43;;
76582;SDS011;65462;52.148;7.940;2023-03-01T08:00:21;7.30;;;4.20;;
76582;SDS011;65462;52.148;7.940;2023-03-01T08:02:46;8.70;;;4.03;;
76582;SDS011;65462;52.148;7.940;2023-03-01T08:05:11;10.47;;;4.40;;
76582;SDS011;65462;52.148;7.940;2023-03-01T08:07:37;9.40;;;4.80;;
76582;SDS011;65462;52.148;7.940;2023-03-01T08:10:03;9.10;;;4.67;;
76582;SDS011;65462;52.148;7.940;2023-03-01T08:12:28;9.87;;;4.67;;
76582;SDS011;65462;52.148;7.940;2023-03-01T08:14:54;11.43;;;5.50;;
76582;SDS011;65462;52.148;7.940;2023-03-01T08:17:19;11.00;;;5.63;;
76582;SDS011;65462;52.148;7.940;2023-03-01T08:19:44;12.27;;;5.93;;
76582;SDS011;65462;52.148;7.940;2023-03-01T08:22:10;14.00;;;7.10;;
76582;SDS011;65462;52.148;7.940;2023-03-01T08:24:35;16.97;;;7.20;;
76582;SDS011;65462;52.148;7.940;2023-03-01T08:27:00;12.93;;;7.20;;
76582;SDS011;65462;52.148;7.940;2023-03-01T08:29:27;17.70;;;7.87;;
76582;SDS011;65462;52.148;7.940;2023-03-01T08:31:53;15.77;;;7.40;;
76582;SDS011;65462;52.148;7.940;2023-03-01T08:34:18;13.60;;;7.63;;
76582;SDS011;65462;52.148;7.940;2023-03-01T08:36:44;15.67;;;7.63;;
76582;SDS011;65462;52.148;7.940;2023-03-01T08:39:12;14.93;;;8.40;;
76582;SDS011;65462;52.148;7.940;2023-03-01T08:41:41;15.57;;;8.07;;
76582;SDS011;65462;52.148;7.940;2023-03-01T08:44:07;14.63;;;7.97;;
76582;SDS011;65462;52.148;7.940;2023-03-01T08:46:35;13.00;;;7.37;;
76582;SDS011;65462;52.148;7.940;2023-03-01T08:49:05;15.00;;;8.20;;
76582;SDS011;65462;52.148;7.940;2023-03-01T08:51:32;14.20;;;7.20;;
76582;SDS011;65462;52.148;7.940;2023-03-01T08:54:01;14.50;;;7.20;;
76582;SDS011;65462;52.148;7.940;2023-03-01T08:56:36;14.80;;;7.37;;
76582;SDS011;65462;52.148;7.940;2023-03-01T08:59:01;13.50;;;6.83;;
76582;SDS011;65462;52.148;7.940;2023-03-01T09:01:27;11.70;;;6.77;;
76582;SDS011;65462;52.148;7.940;2023-03-01T09:03:52;12.20;;;6.83;;
76582;SDS011;65462;52.148;7.940;2023-03-01T09:06:18;14.67;;;6.73;;
76582;SDS011;65462;52.148;7.940;2023-03-01T09:08:45;13.33;;;7.73;;
76582;SDS011;65462;52.148;7.940;2023-03-01T09:11:12;11.47;;;6.37;;
76582;SDS011;65462;52.148;7.940;2023-03-01T09:13:41;13.47;;;6.57;;
76582;SDS011;65462;52.148;7.940;2023-03-01T09:16:06;10.80;;;6.63;;
76582;SDS011;65462;52.148;7.940;2023-03-01T09:18:32;13.67;;;6.87;;
76582;SDS011;65462;52.148;7.940;2023-03-01T09:21:32;13.70;;;7.33;;
76582;SDS011;65462;52.148;7.940;2023-03-01T09:23:50;10.53;;;6.07;;
76582;SDS011;65462;52.148;7.940;2023-03-01T09:26:17;10.83;;;6.27;;
76582;SDS011;65462;52.148;7.940;2023-03-01T09:28:45;9.93;;;6.20;;
76582;SDS011;65462;52.148;7.940;2023-03-01T09:31:11;11.67;;;6.03;;
76582;SDS011;65462;52.148;7.940;2023-03-01T09:33:38;11.20;;;6.40;;
76582;SDS011;65462;52.148;7.940;2023-03-01T09:36:04;11.30;;;6.80;;
76582;SDS011;65462;52.148;7.940;2023-03-01T09:38:33;11.83;;;6.73;;
76582;SDS011;65462;52.148;7.940;2023-03-01T09:40:59;10.77;;;6.50;;
76582;SDS011;65462;52.148;7.940;2023-03-01T09:43:38;13.63;;;6.33;;
76582;SDS011;65462;52.148;7.940;2023-03-01T09:46:10;13.82;;;6.63;;
76582;SDS011;65462;52.148;7.940;2023-03-01T09:48:41;11.20;;;5.87;;
76582;SDS011;65462;52.148;7.940;2023-03-01T09:51:12;9.67;;;5.50;;
76582;SDS011;65462;52.148;7.940;2023-03-01T09:53:42;11.17;;;5.53;;
76582;SDS011;65462;52.148;7.940;2023-03-01T09:56:13;8.97;;;5.57;;
76582;SDS011;65462;52.148;7.940;2023-03-01T10:01:51;10.83;;;5.70;;
76582;SDS011;65462;52.148;7.940;2023-03-01T10:07:13;10.15;;;5.70;;
76582;SDS011;65462;52.148;7.940;2023-03-01T10:09:53;10.73;;;5.63;;
76582;SDS011;65462;52.148;7.940;2023-03-01T10:12:19;9.70;;;5.80;;
76582;SDS011;65462;52.148;7.940;2023-03-01T10:19:52;9.20;;;5.57;;
76582;SDS011;65462;52.148;7.940;2023-03-01T10:22:22;8.33;;;4.77;;
76582;SDS011;65462;52.148;7.940;2023-03-01T10:24:53;11.57;;;5.40;;
76582;SDS011;65462;52.148;7.940;2023-03-01T10:32:27;8.40;;;5.37;;
76582;SDS011;65462;52.148;7.940;2023-03-01T10:34:53;10.47;;;5.80;;
76582;SDS011;65462;52.148;7.940;2023-03-01T10:37:20;9.83;;;4.90;;
76582;SDS011;65462;52.148;7.940;2023-03-01T10:39:54;11.10;;;5.50;;
76582;SDS011;65462;52.148;7.940;2023-03-01T10:42:34;11.90;;;5.27;;
76582;SDS011;65462;52.148;7.940;2023-03-01T10:45:44;10.87;;;5.03;;
76582;SDS011;65462;52.148;7.940;2023-03-01T10:48:03;7.27;;;4.63;;
76582;SDS011;65462;52.148;7.940;2023-03-01T10:53:00;8.63;;;5.07;;
76582;SDS011;65462;52.148;7.940;2023-03-01T10:55:38;8.77;;;5.40;;
76582;SDS011;65462;52.148;7.940;2023-03-01T10:58:09;10.03;;;5.17;;
76582;SDS011;65462;52.148;7.940;2023-03-01T11:03:19;7.90;;;5.13;;
76582;SDS011;65462;52.148;7.940;2023-03-01T11:05:52;8.17;;;4.70;;
76582;SDS011;65462;52.148;7.940;2023-03-01T11:08:30;10.07;;;5.50;;
76582;SDS011;65462;52.148;7.940;2023-03-01T11:11:13;9.47;;;5.13;;
76582;SDS011;65462;52.148;7.940;2023-03-01T11:16:36;6.30;;;3.93;;
76582;SDS011;65462;52.148;7.940;2023-03-01T11:24:27;6.17;;;4.00;;
76582;SDS011;65462;52.148;7.940;2023-03-01T11:26:59;6.80;;;4.47;;
76582;SDS011;65462;52.148;7.940;2023-03-01T11:29:38;6.53;;;3.93;;
76582;SDS011;65462;52.148;7.940;2023-03-01T11:32:08;9.90;;;4.50;;
76582;SDS011;65462;52.148;7.940;2023-03-01T11:37:28;7.63;;;4.23;;
76582;SDS011;65462;52.148;7.940;2023-03-01T11:40:16;7.40;;;4.03;;
76582;SDS011;65462;52.148;7.940;2023-03-01T11:42:52;7.23;;;3.80;;
76582;SDS011;65462;52.148;7.940;2023-03-01T11:45:24;8.07;;;4.30;;
76582;SDS011;65462;52.148;7.940;2023-03-01T11:48:06;7.43;;;3.90;;
76582;SDS011;65462;52.148;7.940;2023-03-01T11:50:45;6.10;;;3.90;;
76582;SDS011;65462;52.148;7.940;2023-03-01T12:09:36;6.90;;;4.00;;
76582;SDS011;65462;52.148;7.940;2023-03-01T12:22:59;9.40;;;5.03;;
76582;SDS011;65462;52.148;7.940;2023-03-01T12:28:09;8.93;;;5.47;;
76582;SDS011;65462;52.148;7.940;2023-03-01T12:35:39;9.30;;;5.50;;
76582;SDS011;65462;52.148;7.940;2023-03-01T12:43:44;9.13;;;5.43;;
76582;SDS011;65462;52.148;7.940;2023-03-01T12:49:19;7.37;;;4.43;;
76582;SDS011;65462;52.148;7.940;2023-03-01T12:51:56;9.43;;;5.10;;
76582;SDS011;65462;52.148;7.940;2023-03-01T12:54:27;7.00;;;4.33;;
76582;SDS011;65462;52.148;7.940;2023-03-01T12:56:55;8.80;;;4.77;;
76582;SDS011;65462;52.148;7.940;2023-03-01T12:59:34;6.20;;;3.53;;
76582;SDS011;65462;52.148;7.940;2023-03-01T13:05:24;5.80;;;3.60;;
76582;SDS011;65462;52.148;7.940;2023-03-01T13:08:02;5.90;;;3.80;;
76582;SDS011;65462;52.148;7.940;2023-03-01T13:10:38;7.13;;;4.22;;
76582;SDS011;65462;52.148;7.940;2023-03-01T13:15:34;5.23;;;3.27;;
76582;SDS011;65462;52.148;7.940;2023-03-01T13:26:19;6.47;;;3.57;;
76582;SDS011;65462;52.148;7.940;2023-03-01T13:33:56;5.17;;;3.33;;
76582;SDS011;65462;52.148;7.940;2023-03-01T13:44:21;7.07;;;3.80;;
76582;SDS011;65462;52.148;7.940;2023-03-01T13:46:48;5.57;;;3.43;;
76582;SDS011;65462;52.148;7.940;2023-03-01T13:49:19;5.47;;;3.23;;
76582;SDS011;65462;52.148;7.940;2023-03-01T13:51:47;4.80;;;3.43;;
76582;SDS011;65462;52.148;7.940;2023-03-01T13:54:14;5.03;;;3.20;;
76582;SDS011;65462;52.148;7.940;2023-03-01T13:56:41;4.30;;;3.00;;
76582;SDS011;65462;52.148;7.940;2023-03-01T13:59:18;6.80;;;3.63;;
76582;SDS011;65462;52.148;7.940;2023-03-01T14:01:51;6.63;;;3.70;;
76582;SDS011;65462;52.148;7.940;2023-03-01T14:04:20;6.47;;;3.50;;
76582;SDS011;65462;52.148;7.940;2023-03-01T14:06:48;7.07;;;3.90;;
76582;SDS011;65462;52.148;7.940;2023-03-01T14:11:57;5.37;;;3.27;;
76582;SDS011;65462;52.148;7.940;2023-03-01T14:22:36;6.17;;;3.33;;
76582;SDS011;65462;52.148;7.940;2023-03-01T14:25:06;5.00;;;2.83;;
76582;SDS011;65462;52.148;7.940;2023-03-01T14:27:43;4.73;;;3.20;;
76582;SDS011;65462;52.148;7.940;2023-03-01T14:30:10;5.77;;;2.80;;
76582;SDS011;65462;52.148;7.940;2023-03-01T14:32:40;7.17;;;3.30;;
76582;SDS011;65462;52.148;7.940;2023-03-01T14:35:19;5.37;;;2.90;;
76582;SDS011;65462;52.148;7.940;2023-03-01T14:37:52;4.80;;;2.60;;
76582;SDS011;65462;52.148;7.940;2023-03-01T14:40:36;5.10;;;2.73;;
76582;SDS011;65462;52.148;7.940;2023-03-01T14:43:08;4.82;;;2.70;;
76582;SDS011;65462;52.148;7.940;2023-03-01T15:00:18;6.40;;;2.77;;
76582;SDS011;65462;52.148;7.940;2023-03-01T15:02:46;5.60;;;2.63;;
76582;SDS011;65462;52.148;7.940;2023-03-01T15:05:13;4.77;;;2.60;;
76582;SDS011;65462;52.148;7.940;2023-03-01T15:07:41;3.73;;;2.23;;
76582;SDS011;65462;52.148;7.940;2023-03-01T15:10:23;3.97;;;2.67;;
76582;SDS011;65462;52.148;7.940;2023-03-01T15:12:51;4.97;;;2.77;;
76582;SDS011;65462;52.148;7.940;2023-03-01T15:15:31;5.87;;;2.70;;
76582;SDS011;65462;52.148;7.940;2023-03-01T15:17:59;4.67;;;2.57;;
76582;SDS011;65462;52.148;7.940;2023-03-01T15:20:27;5.33;;;2.60;;
76582;SDS011;65462;52.148;7.940;2023-03-01T15:22:55;3.57;;;2.50;;
76582;SDS011;65462;52.148;7.940;2023-03-01T15:25:22;5.90;;;2.83;;
76582;SDS011;65462;52.148;7.940;2023-03-01T15:27:50;4.87;;;2.80;;
76582;SDS011;65462;52.148;7.940;2023-03-01T15:30:26;4.87;;;2.80;;
76582;SDS011;65462;52.148;7.940;2023-03-01T15:35:51;4.40;;;2.80;;
76582;SDS011;65462;52.148;7.940;2023-03-01T15:40:53;5.33;;;2.77;;
76582;SDS011;65462;52.148;7.940;2023-03-01T15:46:20;6.23;;;3.17;;
76582;SDS011;65462;52.148;7.940;2023-03-01T15:49:04;6.03;;;2.83;;
76582;SDS011;65462;52.148;7.940;2023-03-01T15:51:45;5.40;;;2.97;;
76582;SDS011;65462;52.148;7.940;2023-03-01T15:54:13;4.10;;;2.73;;
76582;SDS011;65462;52.148;7.940;2023-03-01T15:59:10;4.50;;;2.40;;
76582;SDS011;65462;52.148;7.940;2023-03-01T16:01:40;5.03;;;2.87;;
76582;SDS011;65462;52.148;7.940;2023-03-01T16:04:05;6.80;;;3.03;;
76582;SDS011;65462;52.148;7.940;2023-03-01T16:06:31;4.87;;;2.53;;
76582;SDS011;65462;52.148;7.940;2023-03-01T16:08:56;4.73;;;2.73;;
76582;SDS011;65462;52.148;7.940;2023-03-01T16:11:21;4.70;;;2.23;;
76582;SDS011;65462;52.148;7.940;2023-03-01T16:13:47;3.40;;;2.17;;
76582;SDS011;65462;52.148;7.940;2023-03-01T16:16:14;4.73;;;2.30;;
76582;SDS011;65462;52.148;7.940;2023-03-01T16:18:41;5.63;;;2.73;;
76582;SDS011;65462;52.148;7.940;2023-03-01T16:21:10;5.50;;;2.67;;
76582;SDS011;65462;52.148;7.940;2023-03-01T16:23:38;4.10;;;2.57;;
76582;SDS011;65462;52.148;7.940;2023-03-01T16:26:03;7.43;;;2.60;;
76582;SDS011;65462;52.148;7.940;2023-03-01T16:28:28;4.33;;;2.50;;
76582;SDS011;65462;52.148;7.940;2023-03-01T16:30:53;4.43;;;2.57;;
76582;SDS011;65462;52.148;7.940;2023-03-01T16:33:19;6.33;;;2.77;;
76582;SDS011;65462;52.148;7.940;2023-03-01T16:35:44;4.30;;;2.50;;
76582;SDS011;65462;52.148;7.940;2023-03-01T16:38:11;4.27;;;2.67;;
76582;SDS011;65462;52.148;7.940;2023-03-01T16:40:36;6.63;;;2.70;;
76582;SDS011;65462;52.148;7.940;2023-03-01T16:43:01;6.57;;;3.00;;
76582;SDS011;65462;52.148;7.940;2023-03-01T16:45:28;5.37;;;2.87;;
76582;SDS011;65462;52.148;7.940;2023-03-01T16:47:58;5.50;;;2.07;;
76582;SDS011;65462;52.148;7.940;2023-03-01T16:50:24;8.27;;;3.23;;
76582;SDS011;65462;52.148;7.940;2023-03-01T16:52:50;5.67;;;2.93;;
76582;SDS011;65462;52.148;7.940;2023-03-01T16:55:15;4.80;;;2.97;;
76582;SDS011;65462;52.148;7.940;2023-03-01T16:57:40;4.53;;;2.53;;
76582;SDS011;65462;52.148;7.940;2023-03-01T17:00:06;4.77;;;2.60;;
76582;SDS011;65462;52.148;7.940;2023-03-01T17:02:34;5.80;;;2.93;;
76582;SDS011;65462;52.148;7.940;2023-03-01T17:05:00;6.90;;;2.90;;
76582;SDS011;65462;52.148;7.940;2023-03-01T17:10:03;6.03;;;3.20;;
76582;SDS011;65462;52.148;7.940;2023-03-01T17:12:32;6.23;;;3.00;;
76582;SDS011;65462;52.148;7.940;2023-03-01T17:14:58;5.77;;;3.30;;
76582;SDS011;65462;52.148;7.940;2023-03-01T17:17:24;6.03;;;3.13;;
76582;SDS011;65462;52.148;7.940;2023-03-01T17:19:49;6.43;;;2.80;;
76582;SDS011;65462;52.148;7.940;2023-03-01T17:22:14;6.10;;;2.77;;
76582;SDS011;65462;52.148;7.940;2023-03-01T17:24:41;4.83;;;2.57;;
76582;SDS011;65462;52.148;7.940;2023-03-01T17:27:07;5.03;;;2.90;;
76582;SDS011;65462;52.148;7.940;2023-03-01T17:29:33;7.03;;;3.07;;
76582;SDS011;65462;52.148;7.940;2023-03-01T17:31:58;5.40;;;2.70;;